Terminal Aerodrome Forecast
Issued by NWS Cleveland, OH

Home | Current Version | Previous Version | Text Only | Print | Product List | Glossary Off
Versions: 1 2 3 4 5 6 7 8 9 10 11 12 13 14 15 16 17 18 19

329
FTUS41 KCLE 112330
TAFCAK
TAF
KCAK 112330Z 1200/1224 27006KT P6SM BKN040
     FM121100 21005KT P6SM BKN100
     FM121500 23012KT P6SM SCT035 OVC100
     FM122100 26014G20KT 4SM -SHSN OVC030=

USA.gov is the U.S. government's official web portal to all federal, state and local government web resources and services.